Time;durP1;ratioP1;P1;durP2;ratioP2;P2;SDS_P1;SDS_P2;PMS_P1;PMS_P2;Temp;Humidity;BMP_temperature;BMP_pressure;BME280_temperature;BME280_humidity;BME280_pressure;Samples;Min_cycle;Max_cycle;Signal;HPM_P1;HPM_P2
2022/07/16 00:02:27;;;;;;;0.43;0.10;;;15.30;99.90;;;;;;5032123;28;20135;-73
2022/07/16 00:04:52;;;;;;;0.50;0.10;;;15.20;99.90;;;;;;5015687;28;20550;-73
2022/07/16 00:07:19;;;;;;;0.30;0.10;;;15.30;99.90;;;;;;5033613;28;20033;-74
2022/07/16 00:09:45;;;;;;;0.40;0.13;;;15.30;99.90;;;;;;5033635;28;20095;-73
2022/07/16 00:12:10;;;;;;;0.95;0.20;;;15.30;99.90;;;;;;5031593;28;20060;-73
2022/07/16 00:14:36;;;;;;;1.65;0.20;;;15.20;99.90;;;;;;5032938;28;20132;-73
2022/07/16 00:17:03;;;;;;;0.82;0.10;;;15.20;99.90;;;;;;5032058;28;20037;-73
2022/07/16 00:19:29;;;;;;;0.63;0.20;;;15.20;99.90;;;;;;5048646;28;21778;-74
2022/07/16 00:21:56;;;;;;;0.40;0.10;;;15.20;99.90;;;;;;5032877;28;20065;-74
2022/07/16 00:24:22;;;;;;;0.40;0.10;;;15.20;99.90;;;;;;5031790;28;20029;-73
2022/07/16 00:26:48;;;;;;;0.90;0.10;;;15.20;99.90;;;;;;5031530;28;20037;-73
2022/07/16 00:29:15;;;;;;;1.48;0.20;;;15.20;99.90;;;;;;5037232;28;20103;-73
2022/07/16 00:31:42;;;;;;;0.65;0.20;;;15.20;99.90;;;;;;5016095;28;20370;-74
2022/07/16 00:34:09;;;;;;;0.55;0.20;;;15.20;99.90;;;;;;5032249;28;20390;-73
2022/07/16 00:36:36;;;;;;;0.63;0.10;;;15.20;99.90;;;;;;5032238;28;20433;-73
2022/07/16 00:39:02;;;;;;;1.83;0.20;;;15.20;99.90;;;;;;5013794;28;20049;-73
2022/07/16 00:41:28;;;;;;;1.27;0.20;;;15.20;99.90;;;;;;5031296;28;20124;-73
2022/07/16 00:44:04;;;;;;;1.35;0.20;;;15.20;99.90;;;;;;5015240;28;20036;-72
2022/07/16 00:46:30;;;;;;;0.88;0.13;;;15.30;99.90;;;;;;5032607;28;20485;-73
2022/07/16 00:48:57;;;;;;;0.50;0.20;;;15.30;99.90;;;;;;5049588;28;20119;-72
2022/07/16 00:51:23;;;;;;;0.30;0.10;;;15.30;99.90;;;;;;5033338;28;20051;-73
2022/07/16 00:53:50;;;;;;;0.45;0.10;;;15.40;99.90;;;;;;5032279;28;20450;-73
2022/07/16 00:56:16;;;;;;;0.70;0.20;;;15.50;99.90;;;;;;5032296;28;20550;-73
2022/07/16 00:58:43;;;;;;;1.33;0.20;;;15.50;99.90;;;;;;5049361;28;20032;-73
2022/07/16 01:01:11;;;;;;;2.05;0.30;;;15.60;99.90;;;;;;5016283;28;20045;-73
2022/07/16 01:03:37;;;;;;;0.70;0.20;;;15.60;99.90;;;;;;5017078;28;20127;-73
2022/07/16 01:06:05;;;;;;;0.82;0.15;;;15.70;99.90;;;;;;5018283;28;20040;-74
2022/07/16 01:08:32;;;;;;;0.80;0.22;;;15.70;99.90;;;;;;5030880;28;20029;-73
2022/07/16 01:10:59;;;;;;;0.77;0.20;;;15.80;99.90;;;;;;5014816;28;20117;-73
2022/07/16 01:13:24;;;;;;;1.63;0.30;;;15.80;99.90;;;;;;5031823;28;20664;-73
2022/07/16 01:15:50;;;;;;;0.80;0.30;;;15.80;99.90;;;;;;5036706;28;20055;-73
2022/07/16 01:18:16;;;;;;;0.85;0.20;;;15.80;99.90;;;;;;5031613;28;20029;-73
2022/07/16 01:20:42;;;;;;;1.10;0.20;;;15.90;99.90;;;;;;5016662;28;20041;-73
2022/07/16 01:23:08;;;;;;;0.60;0.20;;;15.90;99.90;;;;;;5031928;28;20032;-74
2022/07/16 01:25:34;;;;;;;1.42;0.30;;;15.90;99.90;;;;;;5030977;28;20058;-73
2022/07/16 01:27:59;;;;;;;3.97;0.40;;;15.90;99.90;;;;;;5026048;28;20036;-73
2022/07/16 01:30:25;;;;;;;2.65;0.30;;;15.90;99.90;;;;;;5030905;28;20501;-74
2022/07/16 01:32:51;;;;;;;1.58;0.30;;;15.80;99.90;;;;;;5031147;28;20666;-73
2022/07/16 01:35:18;;;;;;;1.77;0.30;;;15.80;99.90;;;;;;5032241;28;20028;-73
2022/07/16 01:37:43;;;;;;;2.38;0.40;;;15.70;99.90;;;;;;5046467;28;20051;-73
2022/07/16 01:40:09;;;;;;;2.42;0.60;;;15.80;99.90;;;;;;5031376;28;20025;-73
2022/07/16 01:42:35;;;;;;;0.80;0.30;;;15.80;99.90;;;;;;5046736;28;20240;-73
2022/07/16 01:45:01;;;;;;;1.05;0.28;;;15.80;99.90;;;;;;5035737;28;20061;-74
2022/07/16 01:47:26;;;;;;;1.85;0.40;;;15.80;99.90;;;;;;5032033;28;20136;-73
2022/07/16 01:49:52;;;;;;;1.52;0.30;;;15.70;99.90;;;;;;5032298;28;20098;-73
2022/07/16 01:52:20;;;;;;;1.40;0.40;;;15.70;99.90;;;;;;5029987;28;20040;-75
2022/07/16 01:54:48;;;;;;;1.60;0.40;;;15.70;99.90;;;;;;5031174;28;20051;-75
2022/07/16 01:57:14;;;;;;;2.90;0.35;;;15.70;99.90;;;;;;5014333;28;20048;-73
2022/07/16 01:59:41;;;;;;;1.73;0.22;;;15.70;99.90;;;;;;5035713;28;20464;-73
2022/07/16 02:02:07;;;;;;;2.50;0.32;;;15.80;99.90;;;;;;5018842;28;20028;-73
2022/07/16 02:04:33;;;;;;;1.92;0.30;;;15.90;99.90;;;;;;5034445;28;20381;-73
2022/07/16 02:06:59;;;;;;;1.65;0.30;;;15.90;99.90;;;;;;5014035;28;20824;-74
2022/07/16 02:09:25;;;;;;;1.52;0.30;;;15.90;99.90;;;;;;5045766;28;20068;-73
2022/07/16 02:11:50;;;;;;;1.10;0.30;;;15.90;99.90;;;;;;5047005;28;20049;-73
2022/07/16 02:14:16;;;;;;;0.68;0.20;;;15.90;99.90;;;;;;5035224;28;20036;-74
2022/07/16 02:16:42;;;;;;;1.27;0.30;;;15.90;99.90;;;;;;5031498;28;20492;-73
2022/07/16 02:19:08;;;;;;;1.35;0.40;;;16.00;99.90;;;;;;5030007;28;20024;-74
2022/07/16 02:21:34;;;;;;;1.02;0.40;;;16.00;99.90;;;;;;5029647;28;20120;-73
2022/07/16 02:24:00;;;;;;;1.92;0.57;;;16.10;99.90;;;;;;5018565;28;20225;-73
2022/07/16 02:26:25;;;;;;;1.15;0.40;;;16.20;99.90;;;;;;5027134;28;20052;-73
2022/07/16 02:28:52;;;;;;;2.85;0.43;;;16.10;99.90;;;;;;5031514;28;20122;-74
2022/07/16 02:31:18;;;;;;;2.55;0.50;;;16.20;99.90;;;;;;5035300;28;20075;-73
2022/07/16 02:33:44;;;;;;;4.00;0.50;;;16.20;99.90;;;;;;5016925;28;20497;-73
2022/07/16 02:36:10;;;;;;;1.65;0.60;;;16.20;99.90;;;;;;5047032;28;20030;-73
2022/07/16 02:38:36;;;;;;;1.08;0.40;;;16.20;99.90;;;;;;5030711;28;20041;-73
2022/07/16 02:41:02;;;;;;;1.77;0.47;;;16.30;99.90;;;;;;5031310;28;20543;-73
2022/07/16 02:43:27;;;;;;;1.60;0.40;;;16.30;99.90;;;;;;5024498;28;20028;-74
2022/07/16 02:45:53;;;;;;;2.10;0.43;;;16.30;99.90;;;;;;5029325;28;20033;-74
2022/07/16 02:48:19;;;;;;;1.48;0.50;;;16.30;99.90;;;;;;5031012;28;20379;-73
2022/07/16 02:50:44;;;;;;;2.47;0.47;;;16.30;99.90;;;;;;5031177;28;20033;-73
2022/07/16 02:53:10;;;;;;;3.88;0.60;;;16.30;99.90;;;;;;5017853;28;20031;-73
2022/07/16 02:55:36;;;;;;;2.50;0.40;;;16.30;99.90;;;;;;5031981;28;20366;-74
2022/07/16 02:58:02;;;;;;;1.55;0.40;;;16.30;99.90;;;;;;5028922;28;20482;-74
2022/07/16 03:00:28;;;;;;;1.35;0.57;;;16.30;99.90;;;;;;5031951;28;20033;-74
2022/07/16 03:02:55;;;;;;;1.95;0.60;;;16.30;99.90;;;;;;5033890;28;20041;-73
2022/07/16 03:05:21;;;;;;;1.50;0.50;;;16.30;99.90;;;;;;5014692;28;20474;-74
2022/07/16 03:07:47;;;;;;;2.03;0.60;;;16.30;99.90;;;;;;5032251;28;20017;-73
2022/07/16 03:10:13;;;;;;;3.28;0.75;;;16.30;99.90;;;;;;5029270;28;20033;-73
2022/07/16 03:12:39;;;;;;;3.05;0.85;;;16.30;99.90;;;;;;5030278;28;20530;-74
2022/07/16 03:15:06;;;;;;;2.50;0.60;;;16.30;99.90;;;;;;5031314;28;20071;-74
2022/07/16 03:17:32;;;;;;;3.25;0.70;;;16.30;99.90;;;;;;5031932;28;20116;-73
2022/07/16 03:19:57;;;;;;;3.53;0.90;;;16.30;99.90;;;;;;5045730;28;20123;-74
2022/07/16 03:22:23;;;;;;;3.78;0.90;;;16.30;99.90;;;;;;5017723;28;20128;-73
2022/07/16 03:24:49;;;;;;;2.60;0.60;;;16.30;99.90;;;;;;5031453;28;20417;-73
2022/07/16 03:27:14;;;;;;;1.73;0.55;;;16.30;99.90;;;;;;5012784;28;20377;-74
2022/07/16 03:29:40;;;;;;;1.80;0.82;;;16.30;99.90;;;;;;5030398;28;20037;-73
2022/07/16 03:32:07;;;;;;;3.78;0.90;;;16.20;99.90;;;;;;5030079;28;20033;-74
2022/07/16 03:34:33;;;;;;;3.60;1.08;;;16.30;99.90;;;;;;5012736;28;20137;-74
2022/07/16 03:36:59;;;;;;;2.75;1.05;;;16.30;99.90;;;;;;5029416;28;20033;-74
2022/07/16 03:39:25;;;;;;;4.05;0.90;;;16.30;99.90;;;;;;5029204;28;20410;-74
2022/07/16 03:41:50;;;;;;;2.47;1.40;;;16.20;99.90;;;;;;5029773;28;20032;-74
2022/07/16 03:44:16;;;;;;;2.13;1.00;;;16.20;99.90;;;;;;5034798;28;20032;-73
2022/07/16 03:46:42;;;;;;;2.92;1.27;;;16.20;99.90;;;;;;5027808;28;20176;-73
2022/07/16 03:49:07;;;;;;;3.03;0.93;;;16.30;99.90;;;;;;5029702;28;20029;-73
2022/07/16 03:51:33;;;;;;;2.65;1.05;;;16.20;99.90;;;;;;5029217;28;20041;-74
2022/07/16 03:53:59;;;;;;;4.22;1.02;;;16.30;99.90;;;;;;5031795;28;20480;-74
2022/07/16 03:56:25;;;;;;;3.90;1.70;;;16.20;99.90;;;;;;5023840;28;20471;-74
2022/07/16 03:58:52;;;;;;;3.85;1.85;;;16.30;99.90;;;;;;5029630;28;20021;-74
2022/07/16 04:01:18;;;;;;;4.90;1.20;;;16.30;99.90;;;;;;5043636;28;20025;-74
2022/07/16 04:03:43;;;;;;;3.40;1.10;;;16.30;99.90;;;;;;5028201;28;20500;-74
2022/07/16 04:06:09;;;;;;;4.35;1.25;;;16.20;99.90;;;;;;5029040;28;20458;-74
2022/07/16 04:08:35;;;;;;;2.80;0.95;;;16.20;99.90;;;;;;5028212;28;20087;-73
2022/07/16 04:11:02;;;;;;;4.30;1.20;;;16.20;99.90;;;;;;5027569;28;20071;-74
2022/07/16 04:13:28;;;;;;;5.82;1.48;;;16.30;99.90;;;;;;5028332;28;20108;-73
2022/07/16 04:15:53;;;;;;;3.25;1.30;;;16.30;99.90;;;;;;5027147;28;20044;-73
2022/07/16 04:18:20;;;;;;;3.10;1.38;;;16.30;99.90;;;;;;5010961;28;20037;-73
2022/07/16 04:20:46;;;;;;;2.90;1.00;;;16.40;99.90;;;;;;5029437;28;20394;-73
2022/07/16 04:23:12;;;;;;;6.07;1.13;;;16.40;99.90;;;;;;5028619;28;20500;-75
2022/07/16 04:25:38;;;;;;;2.90;1.10;;;16.40;99.90;;;;;;5030669;28;20064;-73
2022/07/16 04:28:04;;;;;;;3.53;1.02;;;16.40;99.90;;;;;;5013328;28;20037;-74
2022/07/16 04:30:29;;;;;;;4.43;1.70;;;16.40;99.90;;;;;;5030260;28;20118;-74
2022/07/16 04:32:55;;;;;;;3.10;1.50;;;16.50;99.90;;;;;;5043966;28;20074;-74
2022/07/16 04:35:22;;;;;;;2.92;0.90;;;16.50;99.90;;;;;;5027896;28;20030;-74
2022/07/16 04:37:47;;;;;;;3.58;0.80;;;16.50;99.90;;;;;;5029261;28;20059;-73
2022/07/16 04:40:13;;;;;;;4.82;1.50;;;16.60;99.90;;;;;;5028882;28;20033;-74
2022/07/16 04:42:41;;;;;;;2.53;1.10;;;16.60;99.90;;;;;;5044395;28;20053;-74
2022/07/16 04:45:08;;;;;;;3.15;1.50;;;16.60;99.90;;;;;;5027780;28;20646;-73
2022/07/16 04:47:34;;;;;;;3.70;1.50;;;16.50;99.90;;;;;;5030958;28;20264;-74
2022/07/16 04:50:00;;;;;;;4.38;1.88;;;16.30;99.90;;;;;;5032946;28;20041;-74
2022/07/16 04:52:27;;;;;;;3.42;1.20;;;16.10;99.90;;;;;;5031153;28;20151;-74
2022/07/16 04:54:52;;;;;;;4.57;1.75;;;15.90;99.90;;;;;;5035137;28;20259;-74
2022/07/16 04:57:18;;;;;;;3.95;1.10;;;15.80;99.90;;;;;;5017443;28;20057;-74
2022/07/16 04:59:44;;;;;;;2.58;1.00;;;15.70;99.90;;;;;;5042605;28;20029;-75
2022/07/16 05:04:54;;;;;;;2.83;1.13;;;15.60;99.90;;;;;;5036216;28;20071;-74
2022/07/16 05:07:19;;;;;;;2.88;0.93;;;15.60;99.90;;;;;;5033348;28;20109;-74
2022/07/16 05:09:45;;;;;;;2.58;0.88;;;15.70;99.90;;;;;;5032555;28;20076;-74
2022/07/16 05:12:11;;;;;;;5.47;1.42;;;15.70;99.90;;;;;;5031967;28;20077;-75
2022/07/16 05:14:37;;;;;;;3.30;1.30;;;15.70;99.90;;;;;;5031840;28;20063;-74
2022/07/16 05:17:03;;;;;;;1.88;0.90;;;15.80;99.90;;;;;;5035752;28;20198;-74
2022/07/16 05:19:29;;;;;;;3.00;0.98;;;15.90;99.90;;;;;;5028499;28;20057;-74
2022/07/16 05:21:54;;;;;;;4.03;1.00;;;16.00;99.90;;;;;;5031467;28;20570;-75
2022/07/16 05:24:20;;;;;;;2.13;0.80;;;15.90;99.90;;;;;;5032725;28;20036;-74
2022/07/16 05:26:46;;;;;;;2.63;0.80;;;15.90;99.90;;;;;;5032317;28;20029;-75
2022/07/16 05:29:11;;;;;;;2.20;1.13;;;16.00;99.90;;;;;;5032775;28;20464;-75
2022/07/16 05:31:37;;;;;;;2.03;0.70;;;16.00;99.90;;;;;;5030446;28;20390;-74
2022/07/16 05:34:02;;;;;;;2.65;0.60;;;16.00;99.90;;;;;;5031191;28;20496;-74
2022/07/16 05:36:28;;;;;;;1.52;0.90;;;16.20;99.90;;;;;;5032052;28;20492;-76
2022/07/16 05:38:54;;;;;;;3.15;0.93;;;16.10;99.90;;;;;;5031013;28;20513;-75
2022/07/16 05:41:21;;;;;;;3.60;1.15;;;16.10;99.90;;;;;;5018876;28;20092;-75
2022/07/16 05:43:46;;;;;;;3.03;1.17;;;16.10;99.90;;;;;;5030891;28;20441;-74
2022/07/16 05:46:12;;;;;;;2.15;0.70;;;16.30;99.90;;;;;;5034991;28;20033;-75
2022/07/16 05:48:38;;;;;;;5.72;0.90;;;16.60;99.90;;;;;;5031869;28;20036;-74
2022/07/16 05:51:04;;;;;;;3.17;1.20;;;16.70;99.90;;;;;;5029093;28;20370;-74
2022/07/16 05:53:29;;;;;;;2.40;1.20;;;16.80;99.90;;;;;;5030146;28;20358;-74
2022/07/16 05:55:55;;;;;;;4.18;1.15;;;16.80;99.90;;;;;;5031916;28;20100;-75
2022/07/16 05:58:21;;;;;;;4.35;1.38;;;16.90;99.90;;;;;;5029716;28;20147;-75
2022/07/16 06:00:46;;;;;;;3.28;0.80;;;17.00;99.90;;;;;;5031502;28;20370;-74
2022/07/16 06:03:12;;;;;;;2.42;0.70;;;17.10;99.90;;;;;;5031064;28;20076;-75
2022/07/16 06:05:38;;;;;;;1.40;0.40;;;17.10;99.90;;;;;;5041671;28;20864;-75
2022/07/16 06:08:04;;;;;;;2.65;0.50;;;17.50;99.90;;;;;;5047551;28;20037;-75
2022/07/16 06:10:30;;;;;;;3.05;0.47;;;17.50;99.90;;;;;;5041602;28;20132;-74
2022/07/16 06:12:56;;;;;;;1.95;0.40;;;17.60;99.90;;;;;;5031087;28;20733;-75
2022/07/16 06:15:22;;;;;;;1.45;0.40;;;17.80;99.90;;;;;;5030279;28;20509;-74
2022/07/16 06:17:47;;;;;;;2.33;0.40;;;17.80;99.90;;;;;;5028973;28;20044;-74
2022/07/16 06:20:13;;;;;;;0.95;0.30;;;17.80;99.90;;;;;;5032940;28;20112;-74
2022/07/16 06:22:39;;;;;;;2.92;0.43;;;17.90;99.90;;;;;;5032837;28;20390;-75
2022/07/16 06:25:05;;;;;;;2.97;0.40;;;17.90;99.90;;;;;;5032273;28;20435;-75
2022/07/16 06:27:31;;;;;;;2.58;0.70;;;17.70;99.90;;;;;;5028100;28;20048;-74
2022/07/16 06:30:02;;;;;;;0.85;0.30;;;17.90;99.90;;;;;;5031408;28;20029;-74
2022/07/16 06:32:28;;;;;;;3.08;0.57;;;17.80;99.90;;;;;;5019138;28;20067;-74
2022/07/16 06:34:53;;;;;;;1.88;0.30;;;17.90;99.90;;;;;;5034752;28;20112;-74
2022/07/16 06:37:19;;;;;;;2.45;0.55;;;18.10;99.90;;;;;;5031082;28;20486;-74
2022/07/16 06:39:45;;;;;;;1.35;0.30;;;18.50;99.90;;;;;;5022556;28;20041;-74
2022/07/16 06:42:10;;;;;;;1.48;0.30;;;18.60;99.90;;;;;;5033235;28;20033;-74
2022/07/16 06:44:40;;;;;;;1.50;0.30;;;18.40;99.90;;;;;;5050287;28;20112;-74
2022/07/16 06:47:06;;;;;;;1.73;0.28;;;18.70;99.90;;;;;;5031877;28;20712;-74
2022/07/16 06:49:32;;;;;;;3.25;0.40;;;18.90;99.90;;;;;;5033447;28;20061;-74
2022/07/16 06:51:57;;;;;;;2.83;0.35;;;18.70;99.90;;;;;;5032643;28;20033;-74
2022/07/16 06:54:23;;;;;;;2.65;0.20;;;18.60;99.90;;;;;;5037812;28;22444;-75
2022/07/16 06:56:49;;;;;;;1.35;0.38;;;19.00;99.90;;;;;;5034214;28;20119;-74
2022/07/16 06:59:15;;;;;;;2.30;0.22;;;18.70;99.90;;;;;;5021722;28;20033;-74
2022/07/16 07:01:40;;;;;;;3.70;0.30;;;18.40;99.90;;;;;;5033125;28;20029;-75
2022/07/16 07:04:06;;;;;;;1.35;0.22;;;18.30;99.90;;;;;;5036989;28;20060;-75
2022/07/16 07:06:32;;;;;;;2.05;0.30;;;18.40;99.90;;;;;;5027401;28;20037;-74
2022/07/16 07:08:57;;;;;;;2.35;0.30;;;18.30;99.90;;;;;;5033849;28;20175;-74
2022/07/16 07:11:23;;;;;;;1.00;0.20;;;18.20;99.90;;;;;;5030860;28;20052;-74
2022/07/16 07:13:49;;;;;;;0.88;0.20;;;18.10;99.90;;;;;;5036034;28;20025;-74
2022/07/16 07:16:15;;;;;;;1.77;0.20;;;17.80;99.90;;;;;;5046037;28;20029;-74
2022/07/16 07:18:40;;;;;;;1.77;0.20;;;17.60;99.90;;;;;;5042523;28;20025;-74
2022/07/16 07:21:06;;;;;;;2.05;0.20;;;17.40;99.90;;;;;;5010806;28;20089;-73
2022/07/16 07:23:32;;;;;;;1.33;0.20;;;17.20;99.90;;;;;;5031170;28;20025;-74
2022/07/16 07:25:57;;;;;;;1.20;0.15;;;17.10;99.90;;;;;;5028679;28;20041;-74
2022/07/16 07:28:23;;;;;;;2.45;0.20;;;17.00;99.90;;;;;;5028605;28;20035;-73
2022/07/16 07:30:49;;;;;;;1.05;0.10;;;17.30;99.90;;;;;;5018531;28;20069;-74
2022/07/16 07:33:14;;;;;;;3.25;0.20;;;18.00;99.90;;;;;;5030393;28;20029;-73
2022/07/16 07:35:40;;;;;;;1.85;0.20;;;18.50;99.90;;;;;;5030557;28;20477;-74
2022/07/16 07:38:06;;;;;;;1.10;0.20;;;18.40;99.90;;;;;;5029748;28;20076;-74
2022/07/16 07:40:32;;;;;;;1.98;0.22;;;18.60;99.90;;;;;;5055090;28;20037;-76
2022/07/16 07:43:03;;;;;;;1.35;0.20;;;18.70;99.90;;;;;;5034418;28;20035;-75
2022/07/16 07:45:28;;;;;;;2.60;0.20;;;18.60;99.90;;;;;;5046652;28;20151;-74
2022/07/16 07:47:54;;;;;;;1.90;0.20;;;18.20;99.90;;;;;;5038454;28;20445;-75
2022/07/16 07:50:20;;;;;;;1.58;0.20;;;18.00;99.90;;;;;;5037348;28;20036;-74
2022/07/16 07:52:45;;;;;;;1.33;0.10;;;18.70;99.90;;;;;;5036087;28;20047;-74
2022/07/16 07:55:11;;;;;;;1.15;0.20;;;18.70;99.90;;;;;;5036290;28;20119;-75
2022/07/16 07:57:37;;;;;;;2.58;0.20;;;19.20;99.90;;;;;;5036676;28;20142;-83
2022/07/16 08:00:05;;;;;;;1.73;0.20;;;19.30;99.90;;;;;;5035871;28;20032;-82
2022/07/16 08:02:42;;;;;;;1.75;0.20;;;19.40;99.90;;;;;;5032297;28;20400;-77
2022/07/16 08:05:09;;;;;;;0.82;0.13;;;19.60;99.90;;;;;;5033836;28;20035;-74
2022/07/16 08:07:35;;;;;;;1.83;0.17;;;19.70;99.90;;;;;;5035673;28;20039;-74
2022/07/16 08:10:00;;;;;;;1.15;0.20;;;19.40;99.90;;;;;;5040725;28;20032;-74
2022/07/16 08:12:26;;;;;;;1.48;0.20;;;19.60;99.90;;;;;;5036832;28;20040;-74
2022/07/16 08:14:52;;;;;;;1.33;0.20;;;19.50;99.90;;;;;;5034252;28;20029;-74
2022/07/16 08:17:17;;;;;;;2.25;0.20;;;19.40;99.90;;;;;;5036764;28;20110;-74
2022/07/16 08:19:43;;;;;;;3.70;0.20;;;19.30;99.90;;;;;;5018921;28;20072;-75
2022/07/16 08:22:09;;;;;;;1.60;0.15;;;20.10;99.90;;;;;;5033672;28;20079;-74
2022/07/16 08:27:19;;;;;;;1.52;0.10;;;20.90;99.90;;;;;;5037458;28;20128;-74
2022/07/16 08:29:44;;;;;;;3.42;0.20;;;20.00;99.90;;;;;;5039532;28;20020;-78
2022/07/16 08:32:10;;;;;;;2.33;0.15;;;19.30;99.90;;;;;;5037808;28;20037;-75
2022/07/16 08:34:35;;;;;;;3.30;0.20;;;19.40;99.90;;;;;;5032880;28;20024;-74
2022/07/16 08:37:01;;;;;;;1.15;0.20;;;19.90;99.90;;;;;;5036590;28;20032;-75
2022/07/16 08:39:27;;;;;;;2.28;0.20;;;20.20;99.90;;;;;;5039444;28;20588;-74
2022/07/16 08:41:54;;;;;;;2.08;0.10;;;20.20;99.90;;;;;;5038168;28;20432;-77
2022/07/16 08:44:20;;;;;;;1.15;0.20;;;20.50;99.90;;;;;;5040080;28;20068;-78
2022/07/16 08:46:46;;;;;;;1.35;0.20;;;19.80;99.90;;;;;;5038557;28;20179;-74
2022/07/16 08:49:12;;;;;;;1.17;0.20;;;19.60;99.90;;;;;;5037319;28;20097;-75
2022/07/16 08:51:39;;;;;;;1.50;0.20;;;20.30;99.90;;;;;;5020094;28;20485;-74
2022/07/16 08:54:10;;;;;;;1.40;0.10;;;19.70;99.90;;;;;;5031191;28;20060;-75
2022/07/16 08:56:36;;;;;;;1.20;0.20;;;19.60;99.90;;;;;;5038000;28;20036;-74
2022/07/16 08:59:02;;;;;;;2.92;0.15;;;19.30;99.90;;;;;;5037560;28;20025;-74
2022/07/16 09:01:29;;;;;;;3.50;0.10;;;19.70;99.90;;;;;;5038125;28;20103;-75
2022/07/16 09:03:59;;;;;;;0.55;0.10;;;19.80;99.90;;;;;;5038458;28;20033;-74
2022/07/16 09:06:25;;;;;;;2.88;0.13;;;19.90;99.90;;;;;;5021463;28;20017;-74
2022/07/16 09:08:52;;;;;;;2.17;0.20;;;20.30;99.90;;;;;;5037374;28;20035;-74
2022/07/16 09:11:22;;;;;;;1.80;0.20;;;20.30;99.90;;;;;;5037777;28;20109;-76
2022/07/16 09:14:05;;;;;;;0.60;0.10;;;21.00;99.90;;;;;;5016389;28;20058;-74
2022/07/16 09:16:52;;;;;;;0.95;0.20;;;21.10;99.90;;;;;;5036777;28;20035;-75
2022/07/16 09:19:19;;;;;;;1.90;0.20;;;20.40;99.90;;;;;;5039038;28;20058;-75
2022/07/16 09:22:06;;;;;;;1.30;0.10;;;20.70;99.90;;;;;;5037706;28;20036;-75
2022/07/16 09:24:38;;;;;;;3.80;0.20;;;21.10;99.90;;;;;;5029617;28;20025;-75
2022/07/16 09:27:20;;;;;;;1.33;0.20;;;20.00;99.90;;;;;;5021386;28;20159;-74
2022/07/16 09:29:48;;;;;;;1.58;0.20;;;19.90;99.90;;;;;;5036650;28;20029;-75
2022/07/16 09:32:27;;;;;;;0.80;0.17;;;20.10;99.90;;;;;;5039297;28;20499;-75
2022/07/16 09:35:10;;;;;;;1.27;0.10;;;20.50;99.90;;;;;;5037076;28;20631;-76
2022/07/16 09:37:58;;;;;;;1.38;0.20;;;21.10;99.90;;;;;;5032438;28;20065;-76
2022/07/16 09:40:42;;;;;;;3.25;0.20;;;20.80;99.90;;;;;;5039944;28;20021;-75
2022/07/16 09:43:11;;;;;;;1.70;0.20;;;19.90;99.90;;;;;;5039622;28;20043;-75
2022/07/16 09:45:41;;;;;;;2.10;0.20;;;20.20;99.90;;;;;;5021539;28;20507;-75
2022/07/16 09:48:29;;;;;;;3.92;0.20;;;20.70;99.90;;;;;;5020555;28;20036;-74
2022/07/16 09:50:57;;;;;;;1.10;0.10;;;20.60;99.90;;;;;;5053098;28;20051;-74
2022/07/16 09:53:26;;;;;;;0.95;0.03;;;21.20;99.90;;;;;;5038528;28;20025;-74
2022/07/16 09:56:04;;;;;;;3.05;0.55;;;21.20;99.90;;;;;;5036497;28;20029;-74
2022/07/16 09:58:31;;;;;;;2.35;0.17;;;20.90;99.90;;;;;;5036325;28;20495;-74
2022/07/16 10:00:58;;;;;;;2.55;0.20;;;21.10;99.90;;;;;;5035285;28;20044;-75
2022/07/16 10:03:24;;;;;;;1.02;0.10;;;22.00;99.90;;;;;;5036304;28;20401;-75
2022/07/16 10:05:50;;;;;;;2.25;0.10;;;21.00;99.90;;;;;;5034775;28;20124;-76
2022/07/16 10:08:16;;;;;;;1.60;0.10;;;20.70;99.90;;;;;;5018289;28;20039;-74
2022/07/16 10:10:42;;;;;;;1.35;0.10;;;20.70;99.90;;;;;;5033553;28;20132;-74
2022/07/16 10:13:10;;;;;;;1.35;0.20;;;21.10;99.90;;;;;;5036957;28;20139;-75
2022/07/16 10:15:37;;;;;;;1.35;0.10;;;21.50;99.90;;;;;;5035182;28;20033;-74
2022/07/16 10:18:03;;;;;;;0.90;0.10;;;21.90;99.90;;;;;;5035467;28;20029;-74
2022/07/16 10:20:35;;;;;;;1.58;0.25;;;21.80;99.90;;;;;;5037267;28;20045;-74
2022/07/16 10:23:06;;;;;;;0.65;0.10;;;22.00;99.90;;;;;;5037449;28;20428;-74
2022/07/16 10:25:35;;;;;;;0.57;0.10;;;22.30;99.90;;;;;;5034930;28;20029;-74
2022/07/16 10:28:01;;;;;;;1.65;0.20;;;22.00;99.90;;;;;;5036341;28;20048;-75
2022/07/16 10:30:30;;;;;;;0.98;0.10;;;21.00;99.90;;;;;;5035852;28;20080;-75
2022/07/16 10:32:59;;;;;;;1.57;0.10;;;20.30;99.90;;;;;;5030315;28;20056;-74
2022/07/16 10:35:39;;;;;;;1.80;0.10;;;21.00;99.90;;;;;;5037984;28;20473;-74
2022/07/16 10:38:07;;;;;;;1.65;0.20;;;21.40;99.90;;;;;;5036840;28;20037;-74
2022/07/16 10:40:36;;;;;;;1.20;0.10;;;22.10;99.90;;;;;;5047446;28;20044;-74
2022/07/16 10:43:17;;;;;;;0.50;0.10;;;21.80;99.90;;;;;;5038017;28;20030;-74
2022/07/16 10:45:56;;;;;;;0.32;0.10;;;22.10;99.90;;;;;;5037221;28;20148;-74
2022/07/16 10:48:24;;;;;;;0.87;0.10;;;22.70;99.90;;;;;;5036435;28;20524;-74
2022/07/16 10:51:16;;;;;;;1.17;0.05;;;22.50;99.90;;;;;;5037723;28;20076;-74
2022/07/16 10:54:03;;;;;;;2.15;0.10;;;22.80;99.90;;;;;;5029684;28;20048;-74
2022/07/16 10:56:36;;;;;;;1.35;0.10;;;21.60;99.90;;;;;;5045468;28;20041;-74
2022/07/16 10:59:07;;;;;;;1.00;0.10;;;21.20;99.90;;;;;;5050518;28;20126;-75
2022/07/16 11:01:38;;;;;;;1.98;0.10;;;21.10;99.90;;;;;;5035085;28;20043;-74
2022/07/16 11:04:05;;;;;;;2.35;0.20;;;20.80;99.90;;;;;;5034212;28;20098;-74
2022/07/16 11:06:32;;;;;;;1.00;0.10;;;21.50;99.90;;;;;;5035940;28;20027;-74
2022/07/16 11:09:04;;;;;;;1.63;0.10;;;21.80;99.90;;;;;;5035891;28;20367;-74
2022/07/16 11:11:36;;;;;;;1.08;0.10;;;21.80;99.90;;;;;;5035550;28;20051;-74
2022/07/16 11:14:03;;;;;;;1.15;0.05;;;22.00;99.90;;;;;;5034172;28;20067;-74
2022/07/16 11:16:29;;;;;;;0.95;0.10;;;22.70;99.90;;;;;;5034605;28;20033;-75
2022/07/16 11:18:58;;;;;;;1.10;0.10;;;23.20;99.90;;;;;;5045423;28;20666;-74
2022/07/16 11:21:23;;;;;;;0.87;0.10;;;23.30;99.90;;;;;;5013233;28;20036;-75
2022/07/16 11:23:53;;;;;;;3.60;0.10;;;22.10;99.90;;;;;;5034302;28;20295;-75
2022/07/16 11:26:20;;;;;;;0.98;0.10;;;21.40;99.90;;;;;;5034370;28;20389;-74
2022/07/16 11:28:50;;;;;;;1.40;0.10;;;21.30;99.90;;;;;;5035490;28;20462;-74
2022/07/16 11:31:26;;;;;;;3.28;0.10;;;22.30;99.90;;;;;;5017872;28;20045;-74
2022/07/16 11:33:56;;;;;;;0.70;0.10;;;22.90;99.90;;;;;;5035989;28;20041;-74
2022/07/16 11:36:26;;;;;;;1.52;0.10;;;23.20;99.90;;;;;;5037559;28;20033;-73
2022/07/16 11:38:57;;;;;;;1.98;0.10;;;22.50;99.90;;;;;;5036382;28;20508;-73
2022/07/16 11:41:22;;;;;;;1.30;0.10;;;22.50;99.90;;;;;;5037823;28;20058;-74
2022/07/16 11:43:48;;;;;;;1.60;0.08;;;23.40;99.90;;;;;;5035664;28;20489;-74
2022/07/16 11:46:27;;;;;;;0.80;0.03;;;24.50;99.90;;;;;;5037273;28;20461;-73
2022/07/16 11:48:53;;;;;;;;;;;24.50;99.90;;;;;;5036784;28;20484;-75
2022/07/16 11:51:19;;;;;;;1.15;0.10;;;23.70;99.90;;;;;;5045632;28;19932;-74
2022/07/16 11:53:53;;;;;;;1.58;0.10;;;22.70;99.90;;;;;;5019335;28;20082;-75
2022/07/16 11:56:45;;;;;;;1.70;0.10;;;22.50;99.90;;;;;;5037947;28;20035;-74
2022/07/16 11:59:20;;;;;;;2.65;0.20;;;22.40;99.90;;;;;;5036566;28;20052;-74
2022/07/16 12:01:47;;;;;;;1.30;0.10;;;22.60;99.90;;;;;;5040070;28;20041;-74
2022/07/16 12:04:13;;;;;;;1.15;0.17;;;22.10;99.90;;;;;;5021498;28;20116;-74
2022/07/16 12:06:47;;;;;;;1.60;0.10;;;22.10;99.90;;;;;;5039828;28;20469;-74
2022/07/16 12:09:12;;;;;;;1.13;0.10;;;22.50;99.90;;;;;;5039815;28;20033;-75
2022/07/16 12:11:38;;;;;;;1.38;0.08;;;22.90;99.90;;;;;;5039640;28;20523;-76
2022/07/16 12:14:04;;;;;;;3.63;0.10;;;22.70;99.90;;;;;;5036840;28;20033;-74
2022/07/16 12:16:31;;;;;;;2.25;0.10;;;22.10;99.90;;;;;;5044409;28;20072;-74
2022/07/16 12:19:06;;;;;;;0.80;0.10;;;21.70;99.90;;;;;;5040477;28;20041;-74
2022/07/16 12:21:37;;;;;;;0.57;0.10;;;21.60;99.90;;;;;;5043636;28;20041;-74
2022/07/16 12:24:04;;;;;;;1.40;0.10;;;22.20;99.90;;;;;;5044531;28;20039;-74
2022/07/16 12:26:34;;;;;;;1.25;0.03;;;22.50;99.90;;;;;;5044015;28;20029;-73
2022/07/16 12:29:01;;;;;;;1.75;0.15;;;22.40;99.90;;;;;;5022427;28;20396;-75
2022/07/16 12:31:30;;;;;;;3.60;0.17;;;22.60;99.90;;;;;;5038858;28;20051;-74
2022/07/16 12:33:58;;;;;;;1.67;0.10;;;22.40;99.90;;;;;;5037477;28;20051;-76
2022/07/16 12:36:39;;;;;;;2.33;0.20;;;22.60;99.90;;;;;;5037534;28;20056;-74
2022/07/16 12:39:07;;;;;;;0.77;0.00;;;22.70;99.90;;;;;;5039439;28;20049;-74
2022/07/16 12:41:36;;;;;;;1.55;0.10;;;22.00;99.90;;;;;;4998595;28;21104;-74
2022/07/16 12:44:09;;;;;;;1.25;0.20;;;22.20;99.90;;;;;;4983177;28;20057;-75
2022/07/16 12:46:46;;;;;;;1.33;0.10;;;22.40;99.90;;;;;;5007829;28;20122;-74
2022/07/16 12:49:20;;;;;;;0.77;0.10;;;22.30;99.90;;;;;;5037290;28;20025;-74
2022/07/16 12:51:52;;;;;;;1.58;0.10;;;22.70;99.90;;;;;;5043865;28;20597;-74
2022/07/16 12:54:19;;;;;;;1.30;0.10;;;22.40;99.90;;;;;;5051601;28;20025;-74
2022/07/16 12:59:32;;;;;;;0.93;0.10;;;22.00;99.90;;;;;;5038941;28;21713;-80